Time;durP1;ratioP1;P1;durP2;ratioP2;P2;SDS_P1;SDS_P2;PMS_P1;PMS_P2;Temp;Humidity;BMP_temperature;BMP_pressure;BME280_temperature;BME280_humidity;BME280_pressure;Samples;Min_cycle;Max_cycle;Signal;HPM_P1;HPM_P2
2022/01/21 00:02:31;;;;;;;25.50;4.63;;;;;;;1.39;97.41;101172.84;12241929;19;20083;-86
2022/01/21 00:06:39;;;;;;;13.90;4.10;;;;;;;1.33;97.31;101168.91;12243687;19;20528;-88
2022/01/21 00:10:41;;;;;;;16.08;5.55;;;;;;;1.27;97.51;101164.94;12243856;19;20014;-84
2022/01/21 00:14:43;;;;;;;16.35;4.55;;;;;;;1.20;97.46;101174.72;12239835;19;20014;-85
2022/01/21 00:18:56;;;;;;;12.98;4.05;;;;;;;1.11;97.98;101178.38;12236780;19;20078;-85
2022/01/21 00:31:38;;;;;;;14.40;4.35;;;;;;;0.98;98.11;101186.91;12241151;19;20015;-83
2022/01/21 00:35:40;;;;;;;9.20;3.63;;;;;;;0.97;98.32;101189.75;12233949;19;20048;-84
2022/01/21 00:39:44;;;;;;;8.75;3.65;;;;;;;0.91;98.11;101175.78;12240222;19;20010;-85
2022/01/21 00:43:45;;;;;;;7.63;3.58;;;;;;;0.80;98.23;101178.72;12232840;19;20504;-85
2022/01/21 00:47:48;;;;;;;9.98;3.90;;;;;;;0.67;98.81;101186.38;12230798;19;20010;-84
2022/01/21 00:51:50;;;;;;;9.32;3.70;;;;;;;0.51;98.64;101200.63;12226568;19;20010;-84
2022/01/21 00:55:52;;;;;;;13.05;3.13;;;;;;;0.34;99.15;101204.13;12234762;19;20032;-84
2022/01/21 00:59:53;;;;;;;9.48;3.75;;;;;;;0.15;99.41;101205.91;12235328;19;20362;-83
2022/01/21 01:03:55;;;;;;;9.07;3.25;;;;;;;-0.01;99.61;101221.91;12227084;19;20401;-85
2022/01/21 01:07:59;;;;;;;10.73;3.50;;;;;;;-0.12;99.76;101228.38;12223174;19;20014;-84
2022/01/21 01:20:23;;;;;;;14.57;4.30;;;;;;;-0.14;100.00;101227.66;12228790;19;20021;-84
2022/01/21 01:28:45;;;;;;;8.52;3.45;;;;;;;-0.27;100.00;101224.38;12233178;19;20021;-84
2022/01/21 01:32:49;;;;;;;14.40;4.10;;;;;;;-0.35;100.00;101218.88;12230148;19;19998;-85
2022/01/21 01:36:51;;;;;;;12.05;3.65;;;;;;;-0.48;100.00;101221.84;12231969;19;20468;-84
2022/01/21 01:40:59;;;;;;;;;;;;;;;-0.60;100.00;101223.84;12228720;19;20014;-84
2022/01/21 01:49:36;;;;;;;15.45;3.83;;;;;;;-0.74;100.00;101229.72;12228506;19;20018;-85
2022/01/21 01:53:51;;;;;;;10.27;4.20;;;;;;;-0.74;100.00;101216.19;12221207;19;20014;-85
2022/01/21 01:57:53;;;;;;;11.20;4.03;;;;;;;-0.76;100.00;101213.59;12227810;19;20488;-84
2022/01/21 02:01:58;;;;;;;9.47;4.50;;;;;;;-0.80;100.00;101211.34;12226530;19;20006;-85
2022/01/21 02:06:00;;;;;;;15.77;4.38;;;;;;;-0.86;100.00;101210.03;12218181;19;20019;-85
2022/01/21 02:10:04;;;;;;;10.82;3.60;;;;;;;-0.88;100.00;101205.75;12220548;19;20030;-85
2022/01/21 02:14:10;;;;;;;11.57;4.53;;;;;;;-0.93;100.00;101207.03;12217361;19;20362;-83
2022/01/21 02:22:37;;;;;;;12.88;3.65;;;;;;;-0.92;100.00;101214.16;12209701;19;19998;-85
2022/01/21 02:26:39;;;;;;;12.35;3.53;;;;;;;-0.87;100.00;101223.69;12221067;19;20007;-84
2022/01/21 02:30:56;;;;;;;15.85;4.53;;;;;;;-0.79;100.00;101231.97;12219398;19;20042;-83
2022/01/21 02:34:58;;;;;;;11.98;3.80;;;;;;;-0.67;100.00;101227.28;12217815;19;20391;-84
2022/01/21 02:38:59;;;;;;;11.55;3.85;;;;;;;-0.60;100.00;101233.81;12224352;19;20338;-85
2022/01/21 02:43:01;;;;;;;13.23;5.40;;;;;;;-0.56;100.00;101235.28;12226143;19;20014;-84
2022/01/21 02:47:04;;;;;;;13.73;4.53;;;;;;;-0.54;100.00;101246.78;12221617;19;20031;-85
2022/01/21 02:51:13;;;;;;;14.85;4.10;;;;;;;-0.56;100.00;101244.25;12215113;19;20034;-84
2022/01/21 02:55:15;;;;;;;8.80;3.55;;;;;;;-0.62;100.00;101261.06;12226966;19;20011;-85
2022/01/21 02:59:16;;;;;;;11.98;3.70;;;;;;;-0.64;100.00;101243.25;12223918;19;20094;-83
2022/01/21 03:03:18;;;;;;;10.20;4.05;;;;;;;-0.74;100.00;101251.38;12223970;19;20070;-85
2022/01/21 03:07:20;;;;;;;12.95;3.85;;;;;;;-0.84;100.00;101250.47;12220117;19;20011;-83
2022/01/21 03:11:22;;;;;;;8.47;3.17;;;;;;;-0.90;100.00;101242.94;12224092;19;20381;-83
2022/01/21 03:15:24;;;;;;;18.70;4.43;;;;;;;-0.92;100.00;101243.94;12230948;19;20268;-83
2022/01/21 03:19:25;;;;;;;12.95;4.05;;;;;;;-0.98;100.00;101252.63;12236221;19;20670;-84
2022/01/21 03:23:29;;;;;;;18.02;5.28;;;;;;;-1.07;100.00;101245.34;12238073;19;20365;-85
2022/01/21 03:27:31;;;;;;;12.70;4.75;;;;;;;-1.11;100.00;101260.13;12233569;19;20018;-85
2022/01/21 03:31:34;;;;;;;12.53;4.30;;;;;;;-1.11;100.00;101262.81;12232872;19;20653;-86
2022/01/21 03:35:37;;;;;;;11.13;4.50;;;;;;;-1.09;100.00;101260.84;12230409;19;20022;-84
2022/01/21 03:39:39;;;;;;;24.58;6.88;;;;;;;-1.02;100.00;101266.53;12235728;19;20019;-85
2022/01/21 03:43:40;;;;;;;14.60;4.80;;;;;;;-0.95;100.00;101257.75;12231314;19;20018;-85
2022/01/21 03:47:44;;;;;;;11.40;4.40;;;;;;;-0.87;100.00;101267.00;12245479;19;20007;-84
2022/01/21 03:51:47;;;;;;;11.25;5.28;;;;;;;-0.77;100.00;101276.00;12235828;19;20007;-84
2022/01/21 03:55:49;;;;;;;12.07;5.10;;;;;;;-0.66;100.00;101280.41;12236608;19;20014;-85
2022/01/21 03:59:50;;;;;;;18.10;5.72;;;;;;;-0.57;100.00;101277.72;12236374;19;20737;-85
2022/01/21 04:03:52;;;;;;;9.35;3.95;;;;;;;-0.49;100.00;101280.56;12234411;19;20007;-85
2022/01/21 04:07:54;;;;;;;15.05;5.18;;;;;;;-0.47;100.00;101267.75;12228771;19;20019;-85
2022/01/21 04:11:56;;;;;;;18.23;5.33;;;;;;;-0.52;100.00;101267.31;12234733;19;20443;-85
2022/01/21 04:15:58;;;;;;;15.95;6.18;;;;;;;-0.52;100.00;101278.16;12228978;19;20380;-85
2022/01/21 04:20:04;;;;;;;16.80;5.07;;;;;;;-0.49;100.00;101274.31;12225265;19;20074;-84
2022/01/21 04:24:06;;;;;;;17.00;6.45;;;;;;;-0.39;100.00;101285.13;12224038;19;20021;-85
2022/01/21 04:28:13;;;;;;;15.40;5.38;;;;;;;-0.34;100.00;101286.41;12233343;19;20010;-84
2022/01/21 04:32:16;;;;;;;11.70;4.85;;;;;;;-0.28;100.00;101277.72;12232264;19;20010;-84
2022/01/21 04:36:17;;;;;;;8.05;4.55;;;;;;;-0.21;100.00;101279.84;12226759;19;20013;-84
2022/01/21 04:40:22;;;;;;;11.18;4.93;;;;;;;-0.17;100.00;101281.28;12227724;19;20007;-83
2022/01/21 04:48:45;;;;;;;14.07;5.20;;;;;;;-0.08;100.00;101292.09;12232889;19;20011;-85
2022/01/21 04:52:46;;;;;;;15.15;4.68;;;;;;;-0.02;100.00;101306.94;12226060;19;20027;-82
2022/01/21 04:57:05;;;;;;;12.48;5.43;;;;;;;0.02;100.00;101315.63;12225324;19;20041;-84
2022/01/21 05:01:08;;;;;;;13.18;5.63;;;;;;;0.07;100.00;101318.78;12232978;19;20460;-85
2022/01/21 05:05:10;;;;;;;12.55;5.57;;;;;;;0.11;100.00;101318.31;12227019;19;20027;-84
2022/01/21 05:09:15;;;;;;;13.95;5.30;;;;;;;0.13;100.00;101323.59;12225074;19;20025;-84
2022/01/21 05:13:21;;;;;;;12.68;4.90;;;;;;;0.21;100.00;101331.88;12228043;19;20515;-84
2022/01/21 05:17:25;;;;;;;10.85;5.80;;;;;;;0.30;100.00;101328.28;12230936;19;20015;-83
2022/01/21 05:21:26;;;;;;;14.30;5.63;;;;;;;0.33;100.00;101333.41;12234213;19;20003;-84
2022/01/21 05:25:36;;;;;;;12.73;5.38;;;;;;;0.34;100.00;101332.41;12221100;19;20488;-84
2022/01/21 05:29:38;;;;;;;13.07;5.40;;;;;;;0.38;100.00;101325.69;12228379;19;20444;-84
2022/01/21 05:33:50;;;;;;;13.98;4.38;;;;;;;0.42;100.00;101332.53;12218976;19;20039;-83
2022/01/21 05:38:12;;;;;;;12.10;4.88;;;;;;;0.44;100.00;101335.09;12230096;19;20031;-86
2022/01/21 05:42:26;;;;;;;14.40;5.75;;;;;;;0.42;100.00;101335.25;12220357;19;20018;-84
2022/01/21 05:47:06;;;;;;;13.18;5.45;;;;;;;0.37;100.00;101342.13;12223196;19;20030;-83
2022/01/21 05:51:19;;;;;;;10.85;5.13;;;;;;;0.28;100.00;101351.97;12221522;19;20551;-82
2022/01/21 05:55:42;;;;;;;15.45;5.47;;;;;;;0.16;100.00;101342.28;12235307;19;20062;-83
2022/01/21 06:00:05;;;;;;;13.10;5.10;;;;;;;-0.06;100.00;101341.59;12233113;19;20021;-83
2022/01/21 06:04:07;;;;;;;12.93;5.15;;;;;;;-0.22;100.00;101346.72;12222969;19;20014;-84
2022/01/21 06:08:08;;;;;;;16.77;5.43;;;;;;;-0.38;100.00;101350.00;12227825;19;20014;-82
2022/01/21 06:12:11;;;;;;;11.82;5.35;;;;;;;-0.52;100.00;101353.97;12236054;19;20030;-82
2022/01/21 06:16:12;;;;;;;16.20;5.37;;;;;;;-0.57;100.00;101353.53;12233962;19;20433;-83
2022/01/21 06:20:17;;;;;;;14.68;5.75;;;;;;;-0.51;100.00;101357.53;12231512;19;20275;-82
2022/01/21 06:24:19;;;;;;;14.97;6.27;;;;;;;-0.48;100.00;101355.41;12228846;19;20007;-84
2022/01/21 06:28:21;;;;;;;18.73;5.95;;;;;;;-0.52;100.00;101347.69;12221547;19;20054;-83
2022/01/21 06:32:25;;;;;;;14.40;7.05;;;;;;;-0.55;100.00;101347.97;12215568;19;20018;-85
2022/01/21 06:36:32;;;;;;;25.30;9.40;;;;;;;-0.51;100.00;101350.25;12220894;19;20019;-83
2022/01/21 06:40:33;;;;;;;19.08;7.90;;;;;;;-0.43;100.00;101354.13;12223104;19;20025;-83
2022/01/21 06:44:40;;;;;;;19.50;6.47;;;;;;;-0.35;100.00;101355.13;12226136;19;20032;-84
2022/01/21 06:48:42;;;;;;;16.27;7.30;;;;;;;-0.25;100.00;101344.31;12230161;19;20034;-84
2022/01/21 06:52:43;;;;;;;19.38;6.65;;;;;;;-0.14;100.00;101344.16;12224425;19;20010;-82
2022/01/21 06:56:45;;;;;;;16.85;6.20;;;;;;;-0.06;100.00;101344.31;12226927;19;20003;-82
2022/01/21 07:00:46;;;;;;;10.40;6.82;;;;;;;0.00;100.00;101359.16;12228765;19;20011;-83
2022/01/21 07:04:50;;;;;;;22.30;6.05;;;;;;;0.07;100.00;101381.97;12214900;19;20015;-83
2022/01/21 07:08:54;;;;;;;22.58;7.18;;;;;;;0.12;100.00;101385.09;12219585;19;20138;-83
2022/01/21 07:12:57;;;;;;;16.05;6.65;;;;;;;0.18;100.00;101397.22;12222867;19;20816;-83
2022/01/21 07:16:59;;;;;;;;;;;;;;;0.25;100.00;101395.66;12219860;19;20025;-83
2022/01/21 07:21:01;;;;;;;16.38;6.00;;;;;;;0.32;100.00;101380.50;12227150;19;20015;-83
2022/01/21 07:25:03;;;;;;;19.53;6.77;;;;;;;0.36;100.00;101391.94;12219157;19;20006;-83
2022/01/21 07:29:05;;;;;;;18.30;6.53;;;;;;;0.38;100.00;101389.91;12214116;19;20472;-82
2022/01/21 07:33:07;;;;;;;13.50;6.10;;;;;;;0.42;100.00;101388.66;12218003;19;20326;-83
2022/01/21 07:37:08;;;;;;;19.17;6.20;;;;;;;0.50;100.00;101391.47;12220748;19;20010;-84
2022/01/21 07:41:11;;;;;;;22.55;6.55;;;;;;;0.59;100.00;101382.44;12219446;19;20038;-83
2022/01/21 07:45:14;;;;;;;20.42;7.13;;;;;;;0.63;100.00;101389.31;12218058;19;20007;-83
2022/01/21 07:49:16;;;;;;;26.25;8.85;;;;;;;0.62;99.23;101382.16;12227210;19;20006;-82
2022/01/21 07:53:17;;;;;;;18.37;7.53;;;;;;;0.67;98.85;101390.72;12221616;19;20388;-82
2022/01/21 07:57:19;;;;;;;19.20;7.10;;;;;;;0.76;99.04;101402.53;12187684;19;20464;-82
2022/01/21 08:01:21;;;;;;;17.50;7.13;;;;;;;0.80;98.75;101401.22;12229625;19;20010;-82
2022/01/21 08:05:28;;;;;;;19.25;7.60;;;;;;;0.94;98.96;101412.63;12227539;19;20034;-82
2022/01/21 08:09:29;;;;;;;14.35;7.05;;;;;;;1.03;98.75;101423.44;12235613;19;20011;-82
2022/01/21 08:13:31;;;;;;;20.60;6.53;;;;;;;1.11;97.99;101431.72;12243818;19;20007;-83
2022/01/21 08:17:32;;;;;;;13.70;7.00;;;;;;;1.21;98.22;101437.09;12241354;19;20006;-83
2022/01/21 08:21:34;;;;;;;17.55;7.60;;;;;;;1.26;97.63;101423.94;12231296;19;20034;-82
2022/01/21 08:25:36;;;;;;;19.10;7.70;;;;;;;1.32;97.17;101419.78;12235921;19;20002;-82
2022/01/21 08:29:37;;;;;;;18.52;7.60;;;;;;;1.38;96.79;101421.88;12237656;19;20051;-83
2022/01/21 08:33:39;;;;;;;17.45;7.43;;;;;;;1.46;96.61;101413.84;12230675;19;20018;-82
2022/01/21 08:37:41;;;;;;;18.08;7.97;;;;;;;1.57;96.47;101415.47;12227225;19;20090;-82
2022/01/21 08:41:42;;;;;;;18.05;7.35;;;;;;;1.66;94.80;101425.44;12230927;19;20011;-82
2022/01/21 08:45:44;;;;;;;17.37;6.97;;;;;;;1.81;94.80;101426.66;12235803;19;20034;-83
2022/01/21 08:49:48;;;;;;;21.27;9.82;;;;;;;1.93;93.93;101426.41;12262691;19;20053;-82
2022/01/21 08:53:53;;;;;;;24.30;8.57;;;;;;;1.90;93.25;101422.13;12230649;19;20014;-81
2022/01/21 08:57:55;;;;;;;20.33;7.47;;;;;;;1.86;93.38;101425.31;12223141;19;20360;-82
2022/01/21 09:01:57;;;;;;;22.00;7.28;;;;;;;1.79;93.52;101425.94;12236845;19;20014;-82
2022/01/21 09:05:59;;;;;;;21.02;8.15;;;;;;;1.83;93.68;101430.03;12228764;19;20475;-82
2022/01/21 09:10:02;;;;;;;14.97;6.80;;;;;;;1.98;93.05;101429.53;12234285;19;20027;-82
2022/01/21 09:14:04;;;;;;;21.15;7.97;;;;;;;2.13;92.76;101433.41;12231330;19;20034;-82
2022/01/21 09:18:06;;;;;;;19.03;6.63;;;;;;;2.32;92.88;101437.84;12239488;19;20129;-82
2022/01/21 09:22:08;;;;;;;16.50;7.72;;;;;;;2.37;91.64;101440.09;12231029;19;20011;-82
2022/01/21 09:26:10;;;;;;;16.92;7.60;;;;;;;2.55;91.78;101451.81;12233163;19;20471;-82
2022/01/21 09:30:11;;;;;;;17.70;7.03;;;;;;;2.76;91.55;101453.34;12229328;19;20053;-81
2022/01/21 09:34:14;;;;;;;11.87;6.83;;;;;;;2.80;90.37;101450.16;12231912;19;20468;-82
2022/01/21 09:38:16;;;;;;;25.40;7.93;;;;;;;2.78;89.64;101445.88;12234044;19;20011;-82
2022/01/21 09:42:18;;;;;;;25.20;7.90;;;;;;;2.79;88.98;101437.53;12227564;19;20016;-82
2022/01/21 09:46:32;;;;;;;22.63;8.27;;;;;;;2.96;89.90;101431.19;12233242;19;20003;-83
2022/01/21 09:50:34;;;;;;;24.50;6.88;;;;;;;3.13;89.39;101439.47;12224858;19;20468;-83
2022/01/21 09:54:38;;;;;;;27.35;9.05;;;;;;;3.27;89.01;101444.31;12234579;19;20030;-82
2022/01/21 09:58:45;;;;;;;21.73;7.72;;;;;;;3.12;87.61;101437.75;12228091;19;20364;-83
2022/01/21 10:02:48;;;;;;;20.02;8.40;;;;;;;3.16;88.22;101444.59;12236443;19;20039;-82
2022/01/21 10:06:51;;;;;;;14.73;7.50;;;;;;;3.24;88.45;101449.22;12231004;19;20034;-82
2022/01/21 10:10:53;;;;;;;21.38;7.65;;;;;;;3.34;87.39;101447.25;12230150;19;20015;-83
2022/01/21 10:14:57;;;;;;;26.42;8.48;;;;;;;3.39;87.53;101443.03;12225169;19;20302;-82
2022/01/21 10:19:31;;;;;;;14.00;6.35;;;;;;;3.41;87.71;101437.38;12232323;19;20033;-82
2022/01/21 10:23:38;;;;;;;16.80;7.03;;;;;;;3.43;87.73;101438.09;12234167;19;20562;-82
2022/01/21 10:27:40;;;;;;;19.27;7.82;;;;;;;3.47;87.39;101449.50;12217154;19;20728;-82
2022/01/21 10:31:57;;;;;;;17.83;7.60;;;;;;;3.49;87.63;101442.03;12228493;19;20051;-82
2022/01/21 10:36:16;;;;;;;23.50;7.95;;;;;;;3.57;87.68;101442.94;12230409;19;20363;-82
2022/01/21 10:40:21;;;;;;;15.52;5.75;;;;;;;3.78;87.35;101436.19;12230321;19;21002;-83
2022/01/21 10:44:25;;;;;;;16.45;6.25;;;;;;;3.82;86.66;101441.13;12231652;19;20608;-82
2022/01/21 10:48:32;;;;;;;15.95;5.90;;;;;;;3.84;85.91;101439.09;12228542;19;20491;-82
2022/01/21 10:52:49;;;;;;;13.20;6.65;;;;;;;3.78;86.36;101430.72;12231464;19;20099;-82
2022/01/21 10:57:15;;;;;;;18.25;7.18;;;;;;;3.68;85.28;101425.41;12222569;19;20015;-83
2022/01/21 11:01:21;;;;;;;13.90;5.63;;;;;;;3.65;85.94;101436.63;12236731;19;20067;-83
2022/01/21 11:05:31;;;;;;;20.17;6.15;;;;;;;3.62;85.84;101421.47;12236254;19;20010;-82
2022/01/21 11:09:37;;;;;;;14.73;5.43;;;;;;;3.67;86.36;101422.84;12231793;19;20756;-82
2022/01/21 11:13:40;;;;;;;13.95;5.00;;;;;;;3.73;86.17;101425.75;12235262;19;20017;-82
2022/01/21 11:17:57;;;;;;;13.68;5.63;;;;;;;3.92;86.11;101421.03;12234911;19;20360;-83
2022/01/21 11:22:01;;;;;;;13.80;5.03;;;;;;;4.13;85.14;101420.56;12246953;19;20015;-83
2022/01/21 11:26:16;;;;;;;13.07;4.22;;;;;;;4.45;84.57;101415.13;12239109;19;20018;-82
2022/01/21 11:30:23;;;;;;;12.85;4.13;;;;;;;4.59;83.36;101410.03;12244688;19;20006;-81
2022/01/21 11:34:27;;;;;;;12.77;5.07;;;;;;;4.56;82.64;101413.94;12242083;19;20006;-81
2022/01/21 11:38:31;;;;;;;8.13;3.70;;;;;;;4.59;82.91;101393.63;12256641;19;20002;-83
2022/01/21 11:42:38;;;;;;;10.93;4.03;;;;;;;4.59;82.39;101396.38;12247570;19;20011;-83
2022/01/21 11:46:48;;;;;;;11.68;5.80;;;;;;;4.75;82.53;101402.66;12253975;19;20044;-83
2022/01/21 11:50:51;;;;;;;10.38;3.90;;;;;;;4.84;80.86;101403.50;12248005;19;20006;-81
2022/01/21 11:54:53;;;;;;;10.82;4.20;;;;;;;4.92;81.29;101405.38;12252194;19;20017;-83
2022/01/21 11:59:11;;;;;;;9.55;4.47;;;;;;;5.00;80.40;101394.44;12262671;19;20017;-84
2022/01/21 12:03:14;;;;;;;12.60;4.30;;;;;;;4.99;80.65;101403.63;12263739;19;20006;-82
2022/01/21 12:07:34;;;;;;;13.90;4.22;;;;;;;4.98;79.67;101402.78;12252315;19;20014;-81
2022/01/21 12:11:38;;;;;;;11.15;4.47;;;;;;;4.84;78.77;101408.94;12248095;19;20018;-80
2022/01/21 12:19:42;;;;;;;11.45;3.88;;;;;;;4.59;77.99;101386.28;12246392;19;20437;-81
2022/01/21 12:23:45;;;;;;;8.85;3.92;;;;;;;4.58;77.68;101392.78;12232132;19;20014;-81
2022/01/21 12:28:17;;;;;;;12.75;4.45;;;;;;;4.63;77.71;101386.78;12244381;19;20073;-82
2022/01/21 12:32:37;;;;;;;10.65;3.85;;;;;;;4.52;78.79;101391.59;12247573;19;20002;-82
2022/01/21 12:37:09;;;;;;;9.43;4.05;;;;;;;4.53;78.81;101390.56;12237080;19;21218;-82
2022/01/21 12:41:17;;;;;;;12.57;3.88;;;;;;;4.59;77.60;101380.84;12244059;19;20105;-82
2022/01/21 12:45:19;;;;;;;13.45;3.45;;;;;;;4.69;78.07;101373.31;12240726;19;20011;-80
2022/01/21 12:49:47;;;;;;;8.57;2.97;;;;;;;4.86;77.41;101376.00;12246757;19;20014;-80
2022/01/21 12:58:39;;;;;;;14.27;3.13;;;;;;;4.76;78.01;101373.47;12244144;19;20015;-81
2022/01/21 13:02:48;;;;;;;12.87;3.30;;;;;;;4.87;76.82;101380.44;12241944;19;20066;-80
2022/01/21 13:06:52;;;;;;;20.25;8.20;;;;;;;4.89;76.69;101373.78;12236886;19;20467;-83
2022/01/21 13:10:55;;;;;;;12.00;3.95;;;;;;;4.86;76.14;101373.28;12241905;19;20038;-82
2022/01/21 13:14:57;;;;;;;;;;;;;;;4.81;76.18;101362.88;12243472;19;20011;-82
2022/01/21 13:19:04;;;;;;;7.82;2.90;;;;;;;4.78;74.47;101369.53;12243262;19;20971;-80
2022/01/21 13:23:06;;;;;;;14.90;4.00;;;;;;;4.60;74.71;101363.41;12240897;19;20003;-82
2022/01/21 13:27:09;;;;;;;8.25;2.80;;;;;;;4.57;75.04;101366.50;12234926;19;20014;-83
2022/01/21 13:31:11;;;;;;;;;;;;;;;4.57;75.05;101366.50;12238782;19;20011;-80
2022/01/21 13:35:15;;;;;;;5.43;2.22;;;;;;;4.44;74.95;101364.31;12236478;19;19919;-81
2022/01/21 13:39:27;;;;;;;7.95;2.63;;;;;;;4.44;74.32;101361.56;12239459;19;20017;-81
2022/01/21 13:43:32;;;;;;;6.88;2.60;;;;;;;4.32;75.05;101362.94;12230102;19;20006;-81
2022/01/21 13:47:39;;;;;;;6.53;2.25;;;;;;;4.41;75.47;101356.47;12239702;19;20471;-82
2022/01/21 13:51:52;;;;;;;14.13;3.17;;;;;;;4.44;75.26;101361.56;12237948;19;20022;-81
2022/01/21 13:55:57;;;;;;;16.65;5.90;;;;;;;4.30;75.89;101365.81;12231413;19;20544;-80
2022/01/21 13:59:59;;;;;;;6.13;2.28;;;;;;;4.17;76.81;101361.94;12238066;19;20003;-83
2022/01/21 14:04:07;;;;;;;7.70;2.08;;;;;;;4.20;76.39;101362.44;12237143;19;20006;-81
2022/01/21 14:08:11;;;;;;;32.55;13.38;;;;;;;4.13;77.07;101363.28;12234078;19;20028;-81
2022/01/21 14:12:13;;;;;;;11.30;3.25;;;;;;;4.04;77.46;101357.81;12232298;19;20038;-81
2022/01/21 14:16:25;;;;;;;30.55;13.35;;;;;;;3.97;78.26;101354.06;12257544;19;20050;-81
2022/01/21 14:20:31;;;;;;;12.10;6.30;;;;;;;3.93;78.71;101358.16;12236347;19;20003;-82
2022/01/21 14:24:42;;;;;;;9.48;2.83;;;;;;;3.92;78.92;101364.59;12246384;19;20074;-82
2022/01/21 14:28:47;;;;;;;4.60;2.13;;;;;;;3.92;78.96;101361.88;12247657;19;20340;-81
2022/01/21 14:32:54;;;;;;;10.65;3.10;;;;;;;3.88;79.35;101376.88;12234308;19;20023;-82
2022/01/21 14:37:12;;;;;;;7.75;2.60;;;;;;;3.85;79.61;101371.78;12240599;19;20014;-82
2022/01/21 14:41:19;;;;;;;5.93;3.70;;;;;;;3.75;80.27;101369.19;12231987;19;20066;-79
2022/01/21 14:45:20;;;;;;;8.40;2.75;;;;;;;3.71;80.92;101362.34;12237653;19;20244;-80
2022/01/21 14:49:29;;;;;;;12.95;3.13;;;;;;;3.67;81.87;101354.69;12238086;19;20034;-82
2022/01/21 14:53:33;;;;;;;6.22;2.42;;;;;;;3.70;81.94;101354.38;12238963;19;20181;-81
2022/01/21 14:57:35;;;;;;;11.00;3.38;;;;;;;3.74;82.27;101363.91;12240082;19;20075;-82
2022/01/21 15:01:54;;;;;;;7.63;2.33;;;;;;;3.77;82.16;101367.13;12234817;19;20014;-81
2022/01/21 15:06:09;;;;;;;9.63;3.92;;;;;;;3.84;82.19;101354.56;12237990;19;20006;-82
2022/01/21 15:10:34;;;;;;;12.13;4.43;;;;;;;3.92;81.74;101352.84;12247438;19;20047;-82
2022/01/21 15:14:45;;;;;;;8.90;2.88;;;;;;;3.90;81.82;101355.75;12240768;19;20010;-81
2022/01/21 15:18:54;;;;;;;7.28;2.65;;;;;;;3.88;82.07;101347.75;12248187;19;20019;-81
2022/01/21 15:22:55;;;;;;;9.25;4.18;;;;;;;3.86;82.55;101357.94;12243862;19;20030;-82
2022/01/21 15:26:57;;;;;;;13.30;5.60;;;;;;;3.88;82.39;101357.81;12248957;19;20014;-81
2022/01/21 15:30:58;;;;;;;10.65;3.65;;;;;;;3.84;82.35;101359.16;12238203;19;20011;-82
2022/01/21 15:35:01;;;;;;;10.15;2.80;;;;;;;3.84;82.42;101354.56;12241970;19;20455;-82
2022/01/21 15:39:04;;;;;;;8.10;2.55;;;;;;;3.82;82.62;101353.03;12242452;19;20358;-82
2022/01/21 15:43:06;;;;;;;6.55;2.42;;;;;;;3.79;82.83;101361.53;12245879;19;20083;-81
2022/01/21 15:47:07;;;;;;;11.02;3.13;;;;;;;3.77;83.03;101352.66;12240581;19;20006;-81
2022/01/21 15:51:09;;;;;;;6.15;1.92;;;;;;;3.75;83.06;101354.69;12243201;19;20421;-82
2022/01/21 15:55:11;;;;;;;7.43;2.30;;;;;;;3.76;83.41;101356.41;12241489;19;20006;-81
2022/01/21 15:59:13;;;;;;;6.43;2.27;;;;;;;3.78;83.45;101359.84;12240726;19;20070;-81
2022/01/21 16:03:15;;;;;;;9.38;2.50;;;;;;;3.81;83.29;101365.81;12240325;19;20092;-82
2022/01/21 16:07:17;;;;;;;8.00;2.72;;;;;;;3.77;83.61;101363.56;12241269;19;20104;-81
2022/01/21 16:11:19;;;;;;;5.32;2.08;;;;;;;3.76;83.60;101359.16;12246676;19;20062;-81
2022/01/21 16:15:21;;;;;;;5.57;1.77;;;;;;;3.75;83.98;101357.41;12236819;19;20098;-81
2022/01/21 16:19:22;;;;;;;4.95;1.83;;;;;;;3.79;84.02;101364.25;12245086;19;20066;-81
2022/01/21 16:23:25;;;;;;;5.72;1.77;;;;;;;3.78;84.19;101365.28;12233215;19;20007;-82
2022/01/21 16:27:27;;;;;;;5.90;2.00;;;;;;;3.74;84.12;101369.34;12240980;19;20006;-80
2022/01/21 16:31:28;;;;;;;5.78;1.80;;;;;;;3.70;84.34;101365.28;12241852;19;20884;-81
2022/01/21 16:35:31;;;;;;;5.57;1.70;;;;;;;3.67;84.56;101369.19;12243612;19;20018;-81
2022/01/21 16:39:33;;;;;;;6.45;1.95;;;;;;;3.69;84.94;101366.28;12239265;19;20011;-81
2022/01/21 16:43:34;;;;;;;4.63;1.70;;;;;;;3.71;84.95;101362.34;12233322;19;20015;-82
2022/01/21 16:47:37;;;;;;;10.82;1.98;;;;;;;3.73;84.86;101364.94;12239029;19;20567;-81
2022/01/21 16:51:39;;;;;;;5.22;1.75;;;;;;;3.69;85.16;101364.41;12232977;19;20002;-81
2022/01/21 16:55:41;;;;;;;5.35;2.17;;;;;;;3.63;85.98;101354.19;12237437;19;20023;-82
2022/01/21 16:59:44;;;;;;;7.68;2.05;;;;;;;3.57;86.27;101352.97;12237020;19;20006;-81
2022/01/21 17:03:45;;;;;;;;;;;;;;;3.55;87.04;101357.72;12236349;19;20373;-81
2022/01/21 17:07:47;;;;;;;6.13;1.95;;;;;;;3.59;86.88;101364.53;12236110;19;19970;-81
2022/01/21 17:11:49;;;;;;;6.45;3.13;;;;;;;3.50;87.40;101354.63;12240414;19;20003;-82
2022/01/21 17:15:52;;;;;;;10.27;3.53;;;;;;;3.52;87.88;101357.22;12230436;19;20073;-81
2022/01/21 17:19:54;;;;;;;11.57;4.18;;;;;;;3.60;88.16;101357.25;12232836;19;20006;-81
2022/01/21 17:23:55;;;;;;;8.63;3.55;;;;;;;3.61;88.05;101376.16;12235859;19;20021;-82
2022/01/21 17:27:57;;;;;;;6.75;2.70;;;;;;;3.61;88.09;101369.84;12229141;19;20031;-82
2022/01/21 17:31:59;;;;;;;6.13;2.40;;;;;;;3.59;88.35;101370.00;12226963;19;20013;-81
2022/01/21 17:36:01;;;;;;;8.00;3.22;;;;;;;3.54;89.03;101366.94;12229942;19;20966;-81
2022/01/21 17:40:07;;;;;;;10.23;5.07;;;;;;;3.47;89.50;101363.16;12237679;19;20329;-82
2022/01/21 17:44:12;;;;;;;12.68;4.68;;;;;;;3.36;90.21;101364.31;12238538;19;20086;-82
2022/01/21 17:48:16;;;;;;;9.80;3.83;;;;;;;3.37;90.38;101360.56;12230689;19;20480;-81
2022/01/21 17:52:20;;;;;;;6.25;3.10;;;;;;;3.40;89.87;101364.84;12233095;19;20452;-81
2022/01/21 17:56:22;;;;;;;17.85;5.50;;;;;;;3.42;89.92;101363.66;12236727;19;20107;-82
2022/01/21 18:00:27;;;;;;;7.38;3.80;;;;;;;3.41;90.16;101370.09;12229986;19;20010;-82
2022/01/21 18:04:29;;;;;;;6.65;2.85;;;;;;;3.44;89.92;101368.94;12233201;19;20003;-82
2022/01/21 18:08:33;;;;;;;5.00;2.70;;;;;;;3.47;89.75;101379.50;12231896;19;20003;-81
2022/01/21 18:12:35;;;;;;;7.00;3.25;;;;;;;3.47;89.69;101370.47;12233625;19;20022;-82
2022/01/21 18:16:38;;;;;;;9.45;3.42;;;;;;;3.47;89.73;101371.31;12237446;19;20335;-83
2022/01/21 18:20:40;;;;;;;;;;;;;;;3.47;90.07;101381.38;12243636;19;20014;-83
2022/01/21 18:24:42;;;;;;;8.68;2.65;;;;;;;3.46;90.16;101376.97;12248538;19;19923;-82
2022/01/21 18:28:45;;;;;;;7.28;2.85;;;;;;;3.40;90.49;101376.59;12243801;19;20017;-82
2022/01/21 18:32:47;;;;;;;6.68;2.53;;;;;;;3.40;90.70;101373.03;12237318;19;20011;-83
2022/01/21 18:36:49;;;;;;;8.27;2.83;;;;;;;3.38;90.97;101372.31;12238342;19;20078;-83
2022/01/21 18:40:51;;;;;;;10.27;2.75;;;;;;;3.35;91.36;101370.78;12222781;19;20050;-82
2022/01/21 18:45:04;;;;;;;6.25;3.17;;;;;;;3.37;91.08;101357.00;12231639;19;20006;-81
2022/01/21 18:49:10;;;;;;;5.22;2.42;;;;;;;3.34;91.66;101360.06;12238719;19;20010;-82
2022/01/21 18:53:15;;;;;;;7.03;2.58;;;;;;;3.36;91.94;101364.31;12238422;19;20512;-81
2022/01/21 18:57:20;;;;;;;8.95;3.05;;;;;;;3.41;91.96;101374.72;12232718;19;20006;-82
2022/01/21 19:01:30;;;;;;;8.43;2.92;;;;;;;3.39;92.42;101368.56;12233726;19;20025;-82
2022/01/21 19:05:34;;;;;;;6.80;3.25;;;;;;;3.33;93.11;101371.94;12239527;19;20047;-83
2022/01/21 19:09:36;;;;;;;9.32;3.33;;;;;;;3.36;93.09;101368.91;12236545;19;20027;-82
2022/01/21 19:13:38;;;;;;;7.90;3.78;;;;;;;3.36;93.17;101368.91;12241121;19;20352;-82
2022/01/21 19:17:39;;;;;;;6.85;2.80;;;;;;;3.36;92.85;101374.34;12236602;19;20028;-82
2022/01/21 19:21:50;;;;;;;9.98;3.17;;;;;;;3.34;93.35;101381.84;12241115;19;20079;-82
2022/01/21 19:25:55;;;;;;;7.35;3.28;;;;;;;3.39;92.92;101371.28;12239011;19;20471;-82
2022/01/21 19:29:57;;;;;;;7.32;2.45;;;;;;;3.40;93.05;101383.91;12246949;19;20006;-82